Time;durP1;ratioP1;P1;durP2;ratioP2;P2;SDS_P1;SDS_P2;PMS_P1;PMS_P2;Temp;Humidity;BMP_temperature;BMP_pressure;BME280_temperature;BME280_humidity;BME280_pressure;Samples;Min_cycle;Max_cycle;Signal;HPM_P1;HPM_P2
2023/02/15 00:00:01;;;;;;;39.10;22.50;;;0.80;99.90;;;;;;5024756;28;20275;-48
2023/02/15 00:02:28;;;;;;;52.93;21.77;;;0.70;99.90;;;;;;5038712;28;20798;-47
2023/02/15 00:04:55;;;;;;;48.53;21.97;;;0.80;99.90;;;;;;5041024;28;20219;-47
2023/02/15 00:07:24;;;;;;;49.30;21.00;;;0.80;99.90;;;;;;5049503;28;20713;-48
2023/02/15 00:09:51;;;;;;;39.33;19.90;;;0.80;99.90;;;;;;5054873;28;20276;-48
2023/02/15 00:12:18;;;;;;;36.40;18.83;;;0.70;99.90;;;;;;5055160;28;20226;-48
2023/02/15 00:14:45;;;;;;;34.53;19.40;;;0.70;99.90;;;;;;5035457;28;20204;-47
2023/02/15 00:17:12;;;;;;;67.83;21.00;;;0.70;99.90;;;;;;5035716;28;20265;-48
2023/02/15 00:19:39;;;;;;;40.10;18.73;;;0.70;99.90;;;;;;5038906;28;20202;-48
2023/02/15 00:22:06;;;;;;;34.53;18.53;;;0.70;99.90;;;;;;5036391;28;20261;-48
2023/02/15 00:24:35;;;;;;;37.70;20.10;;;0.70;99.90;;;;;;5044609;28;20222;-48
2023/02/15 00:27:02;;;;;;;37.03;19.37;;;0.70;99.90;;;;;;5038697;28;20364;-48
2023/02/15 00:29:29;;;;;;;38.27;19.20;;;0.60;99.90;;;;;;5036052;28;20645;-48
2023/02/15 00:31:56;;;;;;;36.30;21.10;;;0.60;99.90;;;;;;5041985;28;20260;-48
2023/02/15 00:34:27;;;;;;;43.47;20.03;;;0.70;99.90;;;;;;5037564;28;20260;-49
2023/02/15 00:36:55;;;;;;;41.33;20.80;;;0.70;99.90;;;;;;5043126;28;20205;-47
2023/02/15 00:39:23;;;;;;;45.00;21.73;;;0.70;99.90;;;;;;5038805;28;20203;-48
2023/02/15 00:41:52;;;;;;;91.53;22.40;;;0.70;99.90;;;;;;5034307;28;20210;-47
2023/02/15 00:44:19;;;;;;;36.50;19.73;;;0.70;99.90;;;;;;5035503;28;20270;-48
2023/02/15 00:46:46;;;;;;;39.20;19.77;;;0.70;99.90;;;;;;5036190;28;20308;-49
2023/02/15 00:49:13;;;;;;;39.07;20.10;;;0.70;99.90;;;;;;5042965;28;20211;-47
2023/02/15 00:51:40;;;;;;;46.93;19.77;;;0.70;99.90;;;;;;5041918;28;20199;-47
2023/02/15 00:54:07;;;;;;;48.53;21.93;;;0.70;99.90;;;;;;5032606;28;20383;-48
2023/02/15 00:56:35;;;;;;;47.10;20.47;;;0.60;99.90;;;;;;5026630;28;20225;-47
2023/02/15 00:59:04;;;;;;;42.70;22.20;;;0.60;99.90;;;;;;5029937;28;20207;-48
2023/02/15 01:01:31;;;;;;;42.37;21.00;;;0.60;99.90;;;;;;5040712;28;20229;-47
2023/02/15 01:03:58;;;;;;;40.03;20.40;;;0.80;99.90;;;;;;5044431;28;20248;-47
2023/02/15 01:06:25;;;;;;;50.70;20.27;;;0.80;99.90;;;;;;5033912;28;20240;-47
2023/02/15 01:08:52;;;;;;;39.00;21.47;;;0.90;99.90;;;;;;5031627;28;20208;-47
2023/02/15 01:11:22;;;;;;;40.93;19.60;;;0.80;99.90;;;;;;5032135;28;20227;-47
2023/02/15 01:13:50;;;;;;;41.87;19.80;;;0.80;99.90;;;;;;5038443;28;20217;-47
2023/02/15 01:16:19;;;;;;;39.20;19.63;;;0.90;99.90;;;;;;5039707;28;20225;-47
2023/02/15 01:18:46;;;;;;;44.57;20.20;;;0.90;99.90;;;;;;5031917;28;20643;-47
2023/02/15 01:21:15;;;;;;;40.80;18.53;;;0.90;99.90;;;;;;5042742;28;20198;-49
2023/02/15 01:23:42;;;;;;;36.60;19.33;;;0.80;99.90;;;;;;5040996;28;20673;-47
2023/02/15 01:26:10;;;;;;;39.80;19.87;;;0.80;99.90;;;;;;5044355;28;20214;-48
2023/02/15 01:28:37;;;;;;;45.87;21.03;;;0.80;99.90;;;;;;5043305;28;20207;-49
2023/02/15 01:31:08;;;;;;;33.33;19.30;;;0.70;99.90;;;;;;5034452;28;20192;-49
2023/02/15 01:33:37;;;;;;;40.63;19.27;;;0.80;99.90;;;;;;5036818;28;20206;-48
2023/02/15 01:36:05;;;;;;;61.77;21.93;;;0.80;99.90;;;;;;5032680;28;20495;-48
2023/02/15 01:38:32;;;;;;;34.67;17.97;;;0.70;99.90;;;;;;5031506;28;20199;-47
2023/02/15 01:41:19;;;;;;;34.90;17.57;;;0.70;99.90;;;;;;5024286;28;20226;-48
2023/02/15 01:43:49;;;;;;;29.80;17.20;;;0.70;99.90;;;;;;5028805;28;20693;-48
2023/02/15 01:46:19;;;;;;;32.13;17.87;;;0.60;99.90;;;;;;5052138;28;20220;-48
2023/02/15 01:48:51;;;;;;;27.47;16.43;;;0.60;99.90;;;;;;5042457;28;20257;-48
2023/02/15 01:51:22;;;;;;;29.77;16.57;;;0.60;99.90;;;;;;5026289;28;20206;-48
2023/02/15 01:53:52;;;;;;;37.73;17.40;;;0.50;99.90;;;;;;5040069;28;20670;-47
2023/02/15 01:56:23;;;;;;;29.73;16.80;;;0.50;99.90;;;;;;5028199;28;20295;-47
2023/02/15 01:58:52;;;;;;;31.57;17.27;;;0.50;99.90;;;;;;5038682;28;20198;-47
2023/02/15 02:01:20;;;;;;;30.27;15.93;;;0.40;99.90;;;;;;5029153;28;20232;-47
2023/02/15 02:03:57;;;;;;;38.57;17.00;;;0.40;99.90;;;;;;5030712;28;20213;-47
2023/02/15 02:06:25;;;;;;;29.30;14.23;;;0.40;99.90;;;;;;5036239;28;20308;-46
2023/02/15 02:08:53;;;;;;;37.93;17.00;;;0.40;99.90;;;;;;5042801;28;20230;-47
2023/02/15 02:11:20;;;;;;;32.17;16.67;;;0.40;99.90;;;;;;5034463;28;20662;-48
2023/02/15 02:13:48;;;;;;;27.07;15.87;;;0.40;99.90;;;;;;5038442;28;20260;-48
2023/02/15 02:16:21;;;;;;;29.53;16.30;;;0.40;99.90;;;;;;5027226;28;20223;-48
2023/02/15 02:19:19;;;;;;;31.07;16.37;;;0.50;99.90;;;;;;5032731;28;20195;-48
2023/02/15 02:22:16;;;;;;;29.47;14.73;;;0.40;99.90;;;;;;4995419;28;20208;-47
2023/02/15 02:25:11;;;;;;;38.87;16.97;;;0.40;99.90;;;;;;5049700;28;20204;-48
2023/02/15 02:27:42;;;;;;;30.60;14.87;;;0.30;99.90;;;;;;5003539;28;20313;-48
2023/02/15 02:30:34;;;;;;;47.57;16.77;;;0.40;99.90;;;;;;5034872;28;20272;-48
2023/02/15 02:33:55;;;;;;;30.70;15.50;;;0.30;99.90;;;;;;5036391;28;20261;-48
2023/02/15 02:36:32;;;;;;;30.20;16.20;;;0.30;99.90;;;;;;5015695;28;20621;-48
2023/02/15 02:39:13;;;;;;;30.47;14.53;;;0.30;99.90;;;;;;5040760;28;20202;-48
2023/02/15 02:41:51;;;;;;;30.13;16.17;;;0.30;99.90;;;;;;5037334;28;20202;-48
2023/02/15 02:44:23;;;;;;;35.50;16.17;;;0.30;99.90;;;;;;5045963;28;20734;-49
2023/02/15 02:46:53;;;;;;;31.57;15.87;;;0.30;99.90;;;;;;5036460;28;20235;-47
2023/02/15 02:49:30;;;;;;;27.90;16.17;;;0.40;99.90;;;;;;5034571;28;20248;-48
2023/02/15 02:52:01;;;;;;;26.23;14.30;;;0.40;99.90;;;;;;5026501;28;20265;-48
2023/02/15 02:54:29;;;;;;;31.23;16.13;;;0.40;99.90;;;;;;5038051;28;20199;-47
2023/02/15 02:56:59;;;;;;;28.80;15.67;;;0.40;99.90;;;;;;5039251;28;20195;-48
2023/02/15 02:59:31;;;;;;;31.63;15.73;;;0.30;99.90;;;;;;5034989;28;20198;-47
2023/02/15 03:02:05;;;;;;;43.43;16.83;;;0.30;99.90;;;;;;5011857;28;20208;-48
2023/02/15 03:04:36;;;;;;;32.47;16.10;;;0.30;99.90;;;;;;5029616;28;20202;-48
2023/02/15 03:07:08;;;;;;;31.23;17.00;;;0.40;99.90;;;;;;5031341;28;20293;-48
2023/02/15 03:09:44;;;;;;;30.67;16.00;;;0.30;99.90;;;;;;5035900;28;20266;-48
2023/02/15 03:12:14;;;;;;;29.73;15.07;;;0.30;99.90;;;;;;5030126;28;20302;-49
2023/02/15 03:14:43;;;;;;;37.90;17.30;;;0.30;99.90;;;;;;5027309;28;20254;-49
2023/02/15 03:17:12;;;;;;;38.87;17.17;;;0.30;99.90;;;;;;5039082;28;20247;-48
2023/02/15 03:19:41;;;;;;;38.93;17.07;;;0.20;99.90;;;;;;5042910;28;20276;-48
2023/02/15 03:22:14;;;;;;;28.17;14.80;;;0.30;99.90;;;;;;5042454;28;20610;-48
2023/02/15 03:24:48;;;;;;;29.57;15.83;;;0.20;99.90;;;;;;5044050;28;20632;-48
2023/02/15 03:27:19;;;;;;;28.87;15.80;;;0.30;99.90;;;;;;5039424;28;20703;-48
2023/02/15 03:29:47;;;;;;;44.90;18.17;;;0.30;99.90;;;;;;5042451;28;20205;-48
2023/02/15 03:32:16;;;;;;;29.23;16.97;;;0.30;99.90;;;;;;5050991;28;20252;-48
2023/02/15 03:34:43;;;;;;;34.50;16.37;;;0.30;99.90;;;;;;5050917;28;20212;-48
2023/02/15 03:37:18;;;;;;;30.87;15.53;;;0.30;99.90;;;;;;5031231;28;20195;-47
2023/02/15 03:39:52;;;;;;;38.93;16.23;;;0.30;99.90;;;;;;5030386;28;20280;-47
2023/02/15 03:42:26;;;;;;;45.47;17.47;;;0.20;99.90;;;;;;5029782;28;20699;-48
2023/02/15 03:44:58;;;;;;;31.83;15.80;;;0.00;99.90;;;;;;5049771;28;20772;-48
2023/02/15 03:47:32;;;;;;;30.00;15.57;;;0.00;99.90;;;;;;5050759;28;20226;-47
2023/02/15 03:50:02;;;;;;;26.30;15.53;;;0.00;99.90;;;;;;5050777;28;20213;-47
2023/02/15 03:52:35;;;;;;;31.13;15.90;;;0.00;99.90;;;;;;5050668;28;20202;-47
2023/02/15 03:55:03;;;;;;;33.10;16.30;;;0.10;99.90;;;;;;5028906;28;20236;-48
2023/02/15 04:03:20;;;;;;;29.60;15.73;;;0.10;99.90;;;;;;5029715;28;20257;-48
2023/02/15 04:05:47;;;;;;;53.63;20.17;;;0.20;99.90;;;;;;5031833;28;20709;-48
2023/02/15 04:08:15;;;;;;;44.17;18.17;;;0.30;99.90;;;;;;5030269;28;20218;-48
2023/02/15 04:10:54;;;;;;;39.90;18.17;;;0.30;99.90;;;;;;5028312;28;20252;-47
2023/02/15 04:13:22;;;;;;;34.07;17.27;;;0.30;99.90;;;;;;5036410;28;20203;-47
2023/02/15 04:16:03;;;;;;;31.60;16.87;;;0.30;99.90;;;;;;5036740;28;20234;-48
2023/02/15 04:26:47;;;;;;;44.93;17.93;;;0.10;99.90;;;;;;5022553;28;20238;-47
2023/02/15 04:29:14;;;;;;;35.83;16.47;;;0.00;99.90;;;;;;5030202;28;20694;-48
2023/02/15 04:31:42;;;;;;;45.63;18.13;;;0.00;99.90;;;;;;5029473;28;20206;-48
2023/02/15 04:34:09;;;;;;;30.53;16.90;;;0.00;99.90;;;;;;5023680;28;20232;-48
2023/02/15 04:36:36;;;;;;;31.07;15.47;;;0.00;99.90;;;;;;5010744;28;20226;-49
2023/02/15 04:39:05;;;;;;;34.17;17.20;;;0.00;99.90;;;;;;5022699;28;20262;-47
2023/02/15 04:41:32;;;;;;;39.77;18.27;;;0.10;99.90;;;;;;5023263;28;20254;-48
2023/02/15 04:43:59;;;;;;;34.87;17.83;;;0.10;99.90;;;;;;5017594;28;20204;-48
2023/02/15 04:46:26;;;;;;;32.60;16.73;;;0.10;99.90;;;;;;5016239;28;20697;-47
2023/02/15 04:48:53;;;;;;;38.30;17.97;;;0.10;99.90;;;;;;5014048;28;20207;-47
2023/02/15 04:51:20;;;;;;;60.80;17.43;;;0.10;99.90;;;;;;5011050;28;20201;-48
2023/02/15 04:53:47;;;;;;;33.40;16.27;;;0.00;99.90;;;;;;5018377;28;20721;-48
2023/02/15 04:56:15;;;;;;;34.90;16.80;;;0.00;99.90;;;;;;5031833;28;20280;-47
2023/02/15 04:58:42;;;;;;;34.80;15.47;;;0.00;99.90;;;;;;5014225;28;20263;-47
2023/02/15 05:01:09;;;;;;;32.17;16.50;;;0.00;99.90;;;;;;5016815;28;20199;-48
2023/02/15 05:03:37;;;;;;;29.77;17.37;;;-0.10;99.90;;;;;;5020335;28;20210;-48
2023/02/15 05:06:05;;;;;;;34.43;17.97;;;-0.10;99.90;;;;;;5016510;28;20710;-48
2023/02/15 05:08:32;;;;;;;31.10;15.53;;;-0.10;99.90;;;;;;5021669;28;20231;-48
2023/02/15 05:10:59;;;;;;;34.53;15.33;;;0.00;99.90;;;;;;5034162;28;20257;-48
2023/02/15 05:13:27;;;;;;;36.00;16.37;;;0.00;99.90;;;;;;5028760;28;20199;-47
2023/02/15 05:15:54;;;;;;;25.17;14.23;;;-0.10;99.90;;;;;;5023640;28;20293;-48
2023/02/15 05:18:22;;;;;;;33.67;15.73;;;-0.10;99.90;;;;;;5022742;28;20341;-48
2023/02/15 05:20:50;;;;;;;39.80;16.80;;;-0.20;99.90;;;;;;5023961;28;20274;-48
2023/02/15 05:23:17;;;;;;;25.27;14.27;;;-0.10;99.90;;;;;;5023085;28;20251;-48
2023/02/15 05:28:34;;;;;;;27.37;15.90;;;-0.20;99.90;;;;;;5030953;28;20215;-48
2023/02/15 05:31:05;;;;;;;29.30;15.37;;;-0.10;99.90;;;;;;5019772;28;20216;-47
2023/02/15 05:33:32;;;;;;;34.50;16.37;;;-0.10;99.90;;;;;;5020013;28;20203;-48
2023/02/15 05:35:59;;;;;;;49.90;17.97;;;-0.10;99.90;;;;;;5026243;28;20779;-47
2023/02/15 05:38:26;;;;;;;57.60;18.33;;;-0.10;99.90;;;;;;5031225;28;20203;-47
2023/02/15 05:40:54;;;;;;;40.53;16.90;;;-0.20;99.90;;;;;;5025313;28;20255;-48
2023/02/15 05:43:21;;;;;;;25.80;13.73;;;-0.20;99.90;;;;;;5037954;28;20270;-47
2023/02/15 05:45:52;;;;;;;31.50;15.73;;;-0.20;99.90;;;;;;5027869;28;20221;-48
2023/02/15 05:48:21;;;;;;;34.50;16.73;;;-0.30;99.90;;;;;;5040831;28;20215;-47
2023/02/15 05:50:58;;;;;;;28.80;14.33;;;-0.40;99.90;;;;;;5037126;28;20672;-46
2023/02/15 05:53:25;;;;;;;29.90;16.47;;;-0.30;99.90;;;;;;5031203;28;20263;-47
2023/02/15 05:55:52;;;;;;;34.57;14.93;;;-0.40;99.90;;;;;;5042489;28;20263;-47
2023/02/15 05:58:19;;;;;;;22.93;14.10;;;-0.30;99.90;;;;;;5032325;28;20203;-46
2023/02/15 06:00:46;;;;;;;65.30;16.60;;;-0.30;99.90;;;;;;5038881;28;20203;-46
2023/02/15 06:03:14;;;;;;;35.50;16.70;;;-0.30;99.90;;;;;;5027590;28;20201;-47
2023/02/15 06:05:41;;;;;;;25.43;14.23;;;-0.30;99.90;;;;;;5031259;28;20221;-46
2023/02/15 06:08:08;;;;;;;29.03;15.23;;;-0.30;99.90;;;;;;5045486;28;20632;-46
2023/02/15 06:10:35;;;;;;;24.17;14.37;;;-0.30;99.90;;;;;;5028250;28;20255;-48
2023/02/15 06:13:02;;;;;;;25.43;14.40;;;-0.40;99.90;;;;;;5038879;28;20252;-47
2023/02/15 06:15:29;;;;;;;24.50;15.20;;;-0.40;99.90;;;;;;5039772;28;20232;-46
2023/02/15 06:17:55;;;;;;;26.57;14.40;;;-0.40;99.90;;;;;;5036111;28;20267;-46
2023/02/15 06:20:24;;;;;;;24.73;14.93;;;-0.50;99.90;;;;;;5037358;28;20296;-46
2023/02/15 06:22:51;;;;;;;43.70;16.43;;;-0.40;99.90;;;;;;5040739;28;20269;-47
2023/02/15 06:25:18;;;;;;;24.97;15.67;;;-0.50;99.90;;;;;;5043488;28;20564;-47
2023/02/15 06:27:45;;;;;;;28.60;15.43;;;-0.50;99.90;;;;;;5030577;28;20705;-47
2023/02/15 06:30:13;;;;;;;37.97;14.43;;;-0.40;99.90;;;;;;5042974;28;20200;-47
2023/02/15 06:32:41;;;;;;;74.53;16.20;;;-0.40;99.90;;;;;;5037487;28;20257;-46
2023/02/15 06:35:08;;;;;;;29.13;14.70;;;-0.60;99.90;;;;;;5035397;28;20293;-47
2023/02/15 06:37:37;;;;;;;27.80;15.30;;;-0.60;99.90;;;;;;5039529;28;20200;-46
2023/02/15 06:40:04;;;;;;;31.10;15.73;;;-0.70;99.90;;;;;;5030279;28;20212;-47
2023/02/15 06:42:34;;;;;;;35.40;15.30;;;-0.60;99.90;;;;;;5035375;28;20209;-46
2023/02/15 06:45:01;;;;;;;24.73;14.77;;;-0.60;99.90;;;;;;5029615;28;20665;-46
2023/02/15 06:47:28;;;;;;;20.03;12.60;;;-0.70;99.90;;;;;;5036889;28;20751;-47
2023/02/15 06:49:55;;;;;;;25.37;15.63;;;-0.70;99.90;;;;;;5041809;28;20267;-47
2023/02/15 06:52:24;;;;;;;22.87;13.23;;;-0.70;99.90;;;;;;5033627;28;20199;-46
2023/02/15 06:54:52;;;;;;;28.40;14.70;;;-0.70;99.90;;;;;;5025792;28;20224;-46
2023/02/15 06:57:19;;;;;;;26.10;12.53;;;-0.70;99.90;;;;;;5029663;28;20269;-46
2023/02/15 06:59:46;;;;;;;39.60;13.37;;;-0.70;99.90;;;;;;5015859;28;20196;-47
2023/02/15 07:02:14;;;;;;;17.77;11.70;;;-0.70;99.90;;;;;;5023294;28;20199;-46
2023/02/15 07:04:41;;;;;;;22.97;12.53;;;-0.70;99.90;;;;;;5013577;28;20235;-46
2023/02/15 07:07:11;;;;;;;30.87;14.67;;;-0.80;99.90;;;;;;5026859;28;20681;-47
2023/02/15 07:09:38;;;;;;;27.27;13.17;;;-0.80;99.90;;;;;;5040098;28;20307;-47
2023/02/15 07:14:51;;;;;;;18.67;12.17;;;-0.90;99.90;;;;;;5024497;28;20229;-46
2023/02/15 07:17:18;;;;;;;21.43;12.87;;;-0.80;99.90;;;;;;5019866;28;20451;-46
2023/02/15 07:19:48;;;;;;;20.03;12.10;;;-0.70;99.90;;;;;;5031807;28;20205;-47
2023/02/15 07:22:15;;;;;;;23.43;12.63;;;-0.90;99.90;;;;;;5032225;28;20724;-47
2023/02/15 07:24:42;;;;;;;29.63;11.93;;;-1.00;99.90;;;;;;5024471;28;20279;-46
2023/02/15 07:27:11;;;;;;;56.27;14.63;;;-1.00;99.90;;;;;;5020426;28;20228;-47
2023/02/15 07:29:39;;;;;;;22.87;12.77;;;-1.10;99.90;;;;;;5025402;28;20214;-47
2023/02/15 07:32:05;;;;;;;34.43;12.13;;;-1.10;99.90;;;;;;5024923;28;20304;-47
2023/02/15 07:34:33;;;;;;;19.63;11.63;;;-1.00;99.90;;;;;;5015637;28;20201;-46
2023/02/15 07:37:00;;;;;;;20.03;11.60;;;-1.00;99.90;;;;;;5019188;28;20706;-47
2023/02/15 07:39:27;;;;;;;21.40;12.43;;;-0.90;99.90;;;;;;5010449;28;20614;-47
2023/02/15 07:41:54;;;;;;;25.47;10.93;;;-0.90;99.90;;;;;;5010368;28;20268;-47
2023/02/15 07:44:22;;;;;;;20.67;10.70;;;-1.00;99.90;;;;;;5018630;28;20361;-47
2023/02/15 07:46:49;;;;;;;24.80;12.57;;;-0.90;99.90;;;;;;5025497;28;20229;-46
2023/02/15 07:49:16;;;;;;;26.83;12.87;;;-0.90;99.90;;;;;;5019796;28;20279;-46
2023/02/15 07:51:43;;;;;;;41.30;13.77;;;-0.80;99.90;;;;;;5023005;28;20220;-46
2023/02/15 07:54:10;;;;;;;17.17;11.03;;;-0.80;99.90;;;;;;5023553;28;20734;-47
2023/02/15 07:56:37;;;;;;;16.23;11.50;;;-0.70;99.90;;;;;;5015110;28;20710;-47
2023/02/15 07:59:04;;;;;;;52.53;14.60;;;-0.50;99.90;;;;;;5011209;28;20201;-46
2023/02/15 08:01:36;;;;;;;25.60;11.60;;;-0.60;99.90;;;;;;5013042;28;20658;-48
2023/02/15 08:04:04;;;;;;;28.13;11.80;;;-0.60;99.90;;;;;;5014435;28;20279;-48
2023/02/15 08:06:33;;;;;;;33.10;13.07;;;-0.60;99.90;;;;;;5020387;28;20218;-47
2023/02/15 08:09:00;;;;;;;20.93;12.33;;;-0.50;99.90;;;;;;5019868;28;20226;-47
2023/02/15 08:11:37;;;;;;;57.10;15.43;;;-0.40;99.90;;;;;;5014957;28;20704;-47
2023/02/15 08:14:07;;;;;;;20.53;12.63;;;-0.40;99.90;;;;;;5028022;28;20561;-47
2023/02/15 08:16:37;;;;;;;21.37;12.67;;;-0.40;99.90;;;;;;5020347;28;20220;-47
2023/02/15 08:19:06;;;;;;;22.30;11.47;;;-0.40;99.90;;;;;;5014957;28;20227;-47
2023/02/15 08:21:34;;;;;;;20.17;11.67;;;-0.40;99.90;;;;;;5010129;28;20280;-47
2023/02/15 08:24:02;;;;;;;25.80;14.13;;;-0.40;99.90;;;;;;5027601;28;20249;-47
2023/02/15 08:26:30;;;;;;;19.37;12.27;;;-0.40;99.90;;;;;;5037259;28;20223;-47
2023/02/15 08:28:58;;;;;;;27.57;12.10;;;-0.30;99.90;;;;;;5014210;28;20246;-48
2023/02/15 08:31:26;;;;;;;36.80;12.57;;;-0.20;99.90;;;;;;5014391;28;20209;-47
2023/02/15 08:33:56;;;;;;;25.40;12.87;;;-0.20;99.90;;;;;;5014260;28;20701;-47
2023/02/15 08:36:25;;;;;;;20.10;11.97;;;-0.20;99.90;;;;;;5014104;28;20306;-48
2023/02/15 08:38:52;;;;;;;27.20;13.27;;;-0.20;99.90;;;;;;5014301;28;20195;-48
2023/02/15 08:41:22;;;;;;;22.03;12.50;;;-0.30;99.90;;;;;;5022630;28;20737;-47
2023/02/15 08:43:51;;;;;;;18.60;11.43;;;-0.30;99.90;;;;;;5028722;28;20207;-47
2023/02/15 08:46:18;;;;;;;22.17;12.83;;;-0.20;99.90;;;;;;5020561;28;20229;-48
2023/02/15 08:48:46;;;;;;;20.70;13.70;;;-0.20;99.90;;;;;;5027264;28;20305;-48
2023/02/15 08:51:16;;;;;;;17.30;12.00;;;-0.10;99.90;;;;;;5020191;28;20692;-47
2023/02/15 08:53:45;;;;;;;24.67;13.73;;;-0.10;99.90;;;;;;5032017;28;20201;-48
2023/02/15 08:56:13;;;;;;;23.83;12.80;;;0.10;99.90;;;;;;5031369;28;20220;-49
2023/02/15 08:58:40;;;;;;;24.37;14.67;;;0.20;99.90;;;;;;5031586;28;20202;-45
2023/02/15 09:01:11;;;;;;;24.10;13.80;;;0.20;99.90;;;;;;5024784;28;20249;-47
2023/02/15 09:03:38;;;;;;;33.27;15.20;;;0.30;99.90;;;;;;5015635;28;20261;-48
2023/02/15 09:06:06;;;;;;;20.50;13.50;;;0.20;99.90;;;;;;5014404;28;20224;-45
2023/02/15 09:08:35;;;;;;;26.27;15.17;;;0.20;99.90;;;;;;5021610;28;20229;-45
2023/02/15 09:11:10;;;;;;;25.65;17.02;;;0.30;99.90;;;;;;5020642;28;20523;-45
2023/02/15 09:13:37;;;;;;;22.43;14.07;;;0.40;99.90;;;;;;5029492;28;20199;-46
2023/02/15 09:16:05;;;;;;;27.10;16.13;;;0.40;99.90;;;;;;5029563;28;20275;-48
2023/02/15 09:18:35;;;;;;;22.93;14.07;;;0.40;99.90;;;;;;5026294;28;20205;-46
2023/02/15 09:21:07;;;;;;;30.80;16.40;;;0.50;99.90;;;;;;5021513;28;20231;-45
2023/02/15 09:23:36;;;;;;;26.30;15.33;;;0.50;99.90;;;;;;5031151;28;20290;-46
2023/02/15 09:26:08;;;;;;;28.03;15.73;;;0.40;99.90;;;;;;5032119;28;20296;-46
2023/02/15 09:28:35;;;;;;;28.73;16.03;;;0.50;99.90;;;;;;5041246;28;20316;-45
2023/02/15 09:31:10;;;;;;;29.70;17.50;;;0.60;99.90;;;;;;5037193;28;20195;-46
2023/02/15 09:33:38;;;;;;;25.70;15.07;;;0.80;99.90;;;;;;5034566;28;20296;-46
2023/02/15 09:36:07;;;;;;;31.40;16.67;;;0.80;99.90;;;;;;5027878;28;20265;-47
2023/02/15 09:38:35;;;;;;;31.83;17.93;;;1.00;99.90;;;;;;5029840;28;20803;-46
2023/02/15 09:41:22;;;;;;;36.73;18.07;;;1.10;99.90;;;;;;5015526;28;20204;-46
2023/02/15 09:43:57;;;;;;;28.70;16.03;;;1.20;99.90;;;;;;5020138;28;20204;-46
2023/02/15 09:46:43;;;;;;;31.13;16.57;;;1.30;99.90;;;;;;5033687;28;20271;-47
2023/02/15 09:49:22;;;;;;;29.70;16.43;;;1.40;99.90;;;;;;5036309;28;20223;-46
2023/02/15 09:52:13;;;;;;;24.43;15.30;;;1.50;99.90;;;;;;5036347;28;20254;-47
2023/02/15 09:54:53;;;;;;;31.87;17.17;;;1.60;99.90;;;;;;5040490;28;20200;-47
2023/02/15 09:57:34;;;;;;;32.43;18.50;;;1.50;99.90;;;;;;5040460;28;20226;-46
2023/02/15 10:00:13;;;;;;;32.50;19.13;;;1.40;99.90;;;;;;5022383;28;20199;-47
2023/02/15 10:02:57;;;;;;;27.80;17.23;;;1.50;99.90;;;;;;5050147;28;20206;-47
2023/02/15 10:05:39;;;;;;;26.37;17.23;;;1.60;99.90;;;;;;5038983;28;20367;-47
2023/02/15 10:08:39;;;;;;;26.40;16.67;;;1.60;99.90;;;;;;5027834;28;20630;-46
2023/02/15 10:14:14;;;;;;;28.20;17.07;;;2.10;99.90;;;;;;5026675;28;20358;-46
2023/02/15 10:16:51;;;;;;;31.20;17.67;;;2.20;99.90;;;;;;5041816;28;20614;-47
2023/02/15 10:19:25;;;;;;;32.40;17.47;;;2.30;99.90;;;;;;5036767;28;20284;-47
2023/02/15 10:22:04;;;;;;;27.50;15.07;;;2.20;99.90;;;;;;5024648;28;20751;-46
2023/02/15 10:25:01;;;;;;;30.67;17.10;;;2.10;99.90;;;;;;5019752;28;20207;-47
2023/02/15 10:27:37;;;;;;;27.13;16.30;;;2.30;99.90;;;;;;5015533;28;20548;-47
2023/02/15 10:30:11;;;;;;;35.63;17.30;;;2.20;99.90;;;;;;5012539;28;20220;-46
2023/02/15 10:32:45;;;;;;;31.00;17.00;;;2.20;99.90;;;;;;5012420;28;20231;-46
2023/02/15 10:35:20;;;;;;;26.83;16.90;;;2.20;99.90;;;;;;5013142;28;20211;-46
2023/02/15 10:38:13;;;;;;;31.43;18.83;;;2.20;99.90;;;;;;5013792;28;20254;-46
2023/02/15 10:40:52;;;;;;;35.43;19.20;;;2.40;99.90;;;;;;5022565;28;20208;-46
2023/02/15 10:43:47;;;;;;;31.47;17.87;;;2.10;99.90;;;;;;5031851;28;20195;-47
2023/02/15 10:46:24;;;;;;;30.80;17.97;;;2.10;99.90;;;;;;5027191;28;20224;-47
2023/02/15 10:49:12;;;;;;;35.57;18.70;;;2.20;99.90;;;;;;5037503;28;20276;-47
2023/02/15 10:51:49;;;;;;;33.30;18.97;;;2.30;99.90;;;;;;5026866;28;20693;-46
2023/02/15 10:54:25;;;;;;;30.90;17.27;;;2.50;99.90;;;;;;5030599;28;20201;-47
2023/02/15 10:57:02;;;;;;;31.60;19.67;;;2.80;99.90;;;;;;5041388;28;20227;-46
2023/02/15 10:59:47;;;;;;;33.97;19.23;;;3.00;99.90;;;;;;5040945;28;20343;-46
2023/02/15 11:02:24;;;;;;;36.17;21.33;;;3.10;99.90;;;;;;5031019;28;20616;-46
2023/02/15 11:05:03;;;;;;;34.80;19.43;;;3.10;99.90;;;;;;5016087;28;20223;-46
2023/02/15 11:07:39;;;;;;;37.07;19.13;;;3.20;99.90;;;;;;5023980;28;20265;-47
2023/02/15 11:10:15;;;;;;;33.17;18.97;;;3.30;99.90;;;;;;5018678;28;20714;-47
2023/02/15 11:12:44;;;;;;;28.83;17.20;;;3.20;99.90;;;;;;5018121;28;20199;-47
2023/02/15 11:15:21;;;;;;;28.97;17.37;;;3.10;99.90;;;;;;5021200;28;20290;-46
2023/02/15 11:17:53;;;;;;;27.17;16.80;;;3.30;99.90;;;;;;5030384;28;20259;-47
2023/02/15 11:20:26;;;;;;;29.70;16.63;;;3.60;99.90;;;;;;5019757;28;20193;-47
2023/02/15 11:22:54;;;;;;;27.27;16.80;;;4.00;99.90;;;;;;5019644;28;20200;-47
2023/02/15 11:25:26;;;;;;;28.30;17.97;;;3.80;99.90;;;;;;5014668;28;20682;-46
2023/02/15 11:27:55;;;;;;;31.30;18.00;;;3.90;99.90;;;;;;5029726;28;20196;-47
2023/02/15 11:30:25;;;;;;;27.87;16.90;;;4.20;99.90;;;;;;5026405;28;20302;-47
2023/02/15 11:32:55;;;;;;;24.93;15.83;;;4.20;99.90;;;;;;5040954;28;20215;-47
2023/02/15 11:35:28;;;;;;;26.50;16.13;;;4.40;99.90;;;;;;5037100;28;20728;-47
2023/02/15 11:38:02;;;;;;;26.23;17.27;;;4.60;99.90;;;;;;5030527;28;20259;-47
2023/02/15 11:40:33;;;;;;;28.73;15.80;;;4.80;99.90;;;;;;5030579;28;20201;-47
2023/02/15 11:43:06;;;;;;;22.40;14.67;;;4.80;99.90;;;;;;5025522;28;20255;-47
2023/02/15 11:45:35;;;;;;;25.70;15.97;;;4.50;99.90;;;;;;5038421;28;20225;-47
2023/02/15 11:48:10;;;;;;;28.53;16.63;;;4.30;99.90;;;;;;5020078;28;20671;-46
2023/02/15 11:50:37;;;;;;;25.30;16.50;;;4.40;99.90;;;;;;5019714;28;20220;-47
2023/02/15 11:53:10;;;;;;;24.87;15.70;;;4.40;99.90;;;;;;5022551;28;20245;-47
2023/02/15 11:55:37;;;;;;;27.73;15.80;;;4.30;99.90;;;;;;5009853;28;21043;-48
2023/02/15 11:58:08;;;;;;;26.57;14.77;;;4.40;99.90;;;;;;5009801;28;20613;-47
2023/02/15 12:00:39;;;;;;;24.38;16.00;;;4.60;99.90;;;;;;5009219;28;20454;-48
2023/02/15 12:03:15;;;;;;;25.90;16.03;;;4.60;99.90;;;;;;5034563;28;20197;-46
2023/02/15 12:05:45;;;;;;;26.53;16.90;;;4.80;99.90;;;;;;5029010;28;20254;-46
2023/02/15 12:08:20;;;;;;;30.03;16.70;;;4.80;99.90;;;;;;5024864;28;20289;-47
2023/02/15 12:11:04;;;;;;;29.23;15.77;;;4.80;99.90;;;;;;5016410;28;20698;-47
2023/02/15 12:13:31;;;;;;;25.47;14.93;;;4.70;99.90;;;;;;5031760;28;20204;-46
2023/02/15 12:16:08;;;;;;;31.63;17.30;;;4.50;99.90;;;;;;5035017;28;20231;-47
2023/02/15 12:18:38;;;;;;;35.23;17.27;;;4.70;99.90;;;;;;5032307;28;20211;-46
2023/02/15 12:21:10;;;;;;;31.20;15.73;;;4.90;99.90;;;;;;5029539;28;20776;-47
2023/02/15 12:23:44;;;;;;;29.60;17.00;;;5.00;99.90;;;;;;5028931;28;20212;-47
2023/02/15 12:26:12;;;;;;;28.63;16.60;;;4.80;99.90;;;;;;5046247;28;20223;-47
2023/02/15 12:28:44;;;;;;;29.40;17.47;;;4.80;99.90;;;;;;5050009;28;20213;-47
2023/02/15 12:31:22;;;;;;;31.37;17.33;;;5.10;99.90;;;;;;5037920;28;20205;-47
2023/02/15 12:33:51;;;;;;;28.47;16.53;;;5.00;99.90;;;;;;5040641;28;20677;-46
2023/02/15 12:36:21;;;;;;;31.73;17.47;;;4.90;99.90;;;;;;5034430;28;20215;-47
2023/02/15 12:39:06;;;;;;;29.40;17.57;;;5.00;99.90;;;;;;5026914;28;20243;-46
2023/02/15 12:41:33;;;;;;;27.43;16.83;;;5.00;99.90;;;;;;5031143;28;20666;-47
2023/02/15 12:44:08;;;;;;;28.07;16.97;;;4.90;99.90;;;;;;5025238;28;20208;-48
2023/02/15 12:46:37;;;;;;;29.47;17.13;;;4.90;99.90;;;;;;5031784;28;20219;-48
2023/02/15 12:49:08;;;;;;;32.57;18.30;;;4.90;99.90;;;;;;5031561;28;20223;-48
2023/02/15 12:51:54;;;;;;;29.43;17.87;;;5.10;99.90;;;;;;5024985;28;20236;-47
2023/02/15 12:54:40;;;;;;;26.53;16.07;;;4.90;99.90;;;;;;5017464;28;20202;-47
2023/02/15 12:57:24;;;;;;;29.47;16.90;;;5.10;99.90;;;;;;5025314;28;20212;-46
2023/02/15 12:59:54;;;;;;;28.70;17.33;;;5.10;99.90;;;;;;5025952;28;20204;-52
2023/02/15 13:02:43;;;;;;;30.57;17.47;;;5.10;99.90;;;;;;5033263;28;20204;-52
2023/02/15 13:05:23;;;;;;;32.13;18.17;;;5.20;99.90;;;;;;5034976;28;20306;-51
2023/02/15 13:07:52;;;;;;;29.80;17.47;;;5.40;99.90;;;;;;5046168;28;20646;-51
2023/02/15 13:10:24;;;;;;;25.57;15.53;;;5.40;99.90;;;;;;5051695;28;20250;-46
2023/02/15 13:12:54;;;;;;;30.97;18.10;;;5.20;99.90;;;;;;5043929;28;20212;-47
2023/02/15 13:15:33;;;;;;;31.17;16.60;;;5.00;99.90;;;;;;5041771;28;20232;-47